Time;durP1;ratioP1;P1;durP2;ratioP2;P2;SDS_P1;SDS_P2;PMS_P1;PMS_P2;Temp;Humidity;BMP_temperature;BMP_pressure;BME280_temperature;BME280_humidity;BME280_pressure;Samples;Min_cycle;Max_cycle;Signal;HPM_P1;HPM_P2
2021/11/07 00:01:10;;;;;;;1.27;0.80;;;16.20;87.80;;;;;;4224442;28;20735;-58
2021/11/07 00:03:38;;;;;;;1.50;0.90;;;16.20;88.10;;;;;;4223920;28;20044;-56
2021/11/07 00:06:07;;;;;;;2.22;0.73;;;16.20;88.00;;;;;;4208540;28;20139;-56
2021/11/07 00:08:42;;;;;;;0.93;0.80;;;16.20;88.10;;;;;;4224623;28;20055;-56
2021/11/07 00:11:07;;;;;;;4.57;1.20;;;16.20;88.20;;;;;;4224911;28;20555;-57
2021/11/07 00:13:29;;;;;;;2.92;1.20;;;16.20;88.20;;;;;;4225179;28;20058;-57
2021/11/07 00:15:52;;;;;;;2.50;0.82;;;16.20;88.40;;;;;;4225230;28;20761;-56
2021/11/07 00:18:17;;;;;;;2.83;1.55;;;16.20;88.30;;;;;;4224895;28;20089;-57
2021/11/07 00:20:47;;;;;;;1.65;1.00;;;16.20;88.40;;;;;;4223903;27;20055;-56
2021/11/07 00:23:22;;;;;;;1.17;1.08;;;16.20;88.50;;;;;;4224612;28;20043;-56
2021/11/07 00:25:48;;;;;;;2.65;1.00;;;16.10;88.40;;;;;;4208230;28;20052;-56
2021/11/07 00:28:15;;;;;;;2.58;0.90;;;16.20;88.50;;;;;;4208617;28;20071;-57
2021/11/07 00:30:44;;;;;;;1.40;0.90;;;16.20;88.60;;;;;;4225003;28;20059;-56
2021/11/07 00:33:20;;;;;;;2.38;0.70;;;16.10;88.40;;;;;;4223964;28;20549;-57
2021/11/07 00:38:26;;;;;;;0.60;0.60;;;16.10;88.50;;;;;;4207831;28;20063;-57
2021/11/07 00:40:54;;;;;;;0.50;0.50;;;16.10;88.50;;;;;;4207684;28;20097;-55
2021/11/07 00:43:23;;;;;;;1.70;0.70;;;16.10;88.60;;;;;;4207312;28;20059;-58
2021/11/07 00:45:57;;;;;;;1.92;0.65;;;16.10;88.70;;;;;;4208072;28;20481;-55
2021/11/07 00:48:23;;;;;;;2.40;0.98;;;16.10;89.60;;;;;;4224238;28;20048;-55
2021/11/07 00:50:55;;;;;;;2.35;1.15;;;16.10;88.80;;;;;;4224734;28;20463;-57
2021/11/07 00:53:33;;;;;;;1.83;1.05;;;16.10;88.90;;;;;;4224579;28;20051;-57
2021/11/07 00:56:06;;;;;;;2.13;0.85;;;16.10;88.70;;;;;;4224241;28;20386;-57
2021/11/07 00:58:35;;;;;;;1.17;1.02;;;16.10;88.90;;;;;;4224199;28;20051;-58
2021/11/07 01:01:02;;;;;;;1.63;0.88;;;16.10;88.80;;;;;;4224623;28;20064;-58
2021/11/07 01:03:25;;;;;;;2.75;1.10;;;16.10;88.70;;;;;;4223916;28;20727;-57
2021/11/07 01:05:50;;;;;;;1.85;0.88;;;16.10;88.60;;;;;;4209109;28;20050;-58
2021/11/07 01:08:12;;;;;;;2.80;0.93;;;16.10;88.70;;;;;;4224317;28;20057;-57
2021/11/07 01:10:35;;;;;;;2.22;1.20;;;16.10;88.80;;;;;;4224114;28;20054;-57
2021/11/07 01:12:59;;;;;;;2.38;1.50;;;16.10;88.90;;;;;;4223353;28;20043;-57
2021/11/07 01:15:23;;;;;;;3.40;1.40;;;16.10;89.00;;;;;;4224417;28;20493;-57
2021/11/07 01:17:45;;;;;;;4.88;1.90;;;16.00;89.10;;;;;;4224326;28;20047;-57
2021/11/07 01:20:09;;;;;;;3.97;1.40;;;16.10;89.00;;;;;;4224039;28;20497;-57
2021/11/07 01:22:40;;;;;;;5.18;2.10;;;16.10;89.20;;;;;;4224577;28;20077;-57
2021/11/07 01:25:03;;;;;;;7.53;2.03;;;16.10;89.20;;;;;;4190716;28;20458;-56
2021/11/07 01:27:30;;;;;;;7.25;2.33;;;16.00;89.20;;;;;;4190709;28;20364;-55
2021/11/07 01:29:56;;;;;;;6.18;2.25;;;16.00;89.20;;;;;;4188323;28;20940;-59
2021/11/07 01:32:20;;;;;;;6.75;2.33;;;16.00;90.00;;;;;;4191310;28;20132;-56
2021/11/07 01:34:53;;;;;;;6.25;2.08;;;16.00;89.30;;;;;;4192262;28;20058;-56
2021/11/07 01:37:17;;;;;;;9.75;2.55;;;16.00;89.30;;;;;;4190465;28;20060;-56
2021/11/07 01:39:45;;;;;;;6.32;2.75;;;16.00;89.50;;;;;;4190426;28;20044;-56
2021/11/07 01:42:11;;;;;;;7.07;2.35;;;16.00;89.60;;;;;;4207387;28;20110;-57
2021/11/07 01:44:38;;;;;;;11.73;3.00;;;16.00;89.60;;;;;;4190891;28;20059;-57
2021/11/07 01:47:02;;;;;;;8.13;2.53;;;16.00;89.70;;;;;;4190163;28;20758;-56
2021/11/07 01:49:33;;;;;;;8.02;2.25;;;16.00;89.80;;;;;;4190522;28;20051;-57
2021/11/07 01:52:00;;;;;;;12.00;2.97;;;16.00;89.90;;;;;;4201380;28;20078;-57
2021/11/07 01:54:26;;;;;;;8.88;2.97;;;16.00;89.90;;;;;;4210530;28;20052;-56
2021/11/07 01:56:49;;;;;;;8.48;2.50;;;16.00;89.90;;;;;;4210357;28;20063;-58
2021/11/07 01:59:11;;;;;;;7.63;2.97;;;16.00;90.00;;;;;;4212034;28;20056;-55
2021/11/07 02:01:34;;;;;;;10.45;3.13;;;16.00;90.00;;;;;;4212138;28;20044;-56
2021/11/07 02:03:58;;;;;;;11.05;3.50;;;16.00;90.00;;;;;;4210429;28;20052;-57
2021/11/07 02:06:21;;;;;;;10.75;3.85;;;16.00;90.00;;;;;;4226951;28;20046;-57
2021/11/07 02:08:43;;;;;;;8.18;2.80;;;16.00;90.00;;;;;;4227175;28;20643;-56
2021/11/07 02:11:06;;;;;;;10.38;2.97;;;16.00;90.40;;;;;;4226742;28;20044;-56
2021/11/07 02:13:28;;;;;;;8.63;3.15;;;16.00;90.00;;;;;;4227032;28;20135;-58
2021/11/07 02:15:51;;;;;;;10.25;2.95;;;15.90;90.00;;;;;;4226858;28;20730;-57
2021/11/07 02:18:15;;;;;;;6.93;2.80;;;16.00;90.00;;;;;;4226965;28;20476;-57
2021/11/07 02:20:42;;;;;;;6.15;2.78;;;16.00;90.10;;;;;;4227575;28;20134;-58
2021/11/07 02:23:07;;;;;;;7.72;2.45;;;16.10;90.00;;;;;;4225392;28;20052;-57
2021/11/07 02:25:29;;;;;;;7.43;2.95;;;16.20;89.70;;;;;;4226813;28;20084;-54
2021/11/07 02:27:52;;;;;;;6.57;2.88;;;16.30;89.40;;;;;;4226724;28;20489;-56
2021/11/07 02:30:15;;;;;;;6.60;2.58;;;16.30;89.10;;;;;;4226877;28;20853;-57
2021/11/07 02:32:38;;;;;;;5.68;2.70;;;16.30;88.90;;;;;;4221399;28;20051;-57
2021/11/07 02:35:01;;;;;;;10.90;3.80;;;16.30;88.60;;;;;;4210161;28;20414;-56
2021/11/07 02:37:24;;;;;;;5.13;2.10;;;16.40;88.60;;;;;;4211079;28;20048;-56
2021/11/07 02:39:47;;;;;;;11.55;3.15;;;16.40;88.60;;;;;;4211226;28;20109;-56
2021/11/07 02:42:09;;;;;;;8.23;3.20;;;16.40;88.40;;;;;;4211337;28;20051;-57
2021/11/07 02:44:33;;;;;;;10.73;2.97;;;16.40;88.40;;;;;;4209736;28;20068;-57
2021/11/07 02:46:56;;;;;;;8.07;3.10;;;16.40;88.40;;;;;;4210857;28;20121;-57
2021/11/07 02:49:19;;;;;;;10.85;3.03;;;16.40;88.40;;;;;;4192782;28;20082;-57
2021/11/07 02:51:41;;;;;;;7.65;2.42;;;16.40;88.30;;;;;;4199476;28;20102;-56
2021/11/07 02:54:06;;;;;;;11.13;3.22;;;16.30;88.30;;;;;;4209666;28;20101;-56
2021/11/07 02:56:29;;;;;;;12.55;3.22;;;16.30;88.40;;;;;;4226749;28;20063;-57
2021/11/07 02:58:51;;;;;;;10.00;2.55;;;16.30;88.40;;;;;;4226082;28;20111;-56
2021/11/07 03:01:15;;;;;;;6.70;2.30;;;16.30;89.30;;;;;;4225985;28;20554;-57
2021/11/07 03:03:38;;;;;;;7.47;2.83;;;16.30;88.40;;;;;;4225675;28;20418;-55
2021/11/07 03:06:01;;;;;;;10.07;2.47;;;16.30;88.30;;;;;;4226179;28;20123;-57
2021/11/07 03:08:23;;;;;;;6.38;2.55;;;16.20;88.20;;;;;;4209154;28;20040;-55
2021/11/07 03:10:47;;;;;;;9.75;2.83;;;16.30;88.40;;;;;;4210436;28;20101;-55
2021/11/07 03:13:13;;;;;;;9.15;2.70;;;16.30;88.20;;;;;;4209220;28;20093;-58
2021/11/07 03:15:36;;;;;;;9.43;3.40;;;16.20;89.10;;;;;;4226193;28;20044;-56
2021/11/07 03:17:58;;;;;;;6.18;2.70;;;16.20;88.20;;;;;;4210325;28;20040;-56
2021/11/07 03:20:21;;;;;;;12.07;3.15;;;16.20;88.30;;;;;;4208040;28;20102;-56
2021/11/07 03:22:42;;;;;;;11.15;3.30;;;16.20;88.20;;;;;;4209976;28;20494;-55
2021/11/07 03:25:06;;;;;;;10.77;3.33;;;16.20;88.60;;;;;;4209108;28;20051;-57
2021/11/07 03:27:35;;;;;;;12.23;3.30;;;16.30;88.20;;;;;;4209355;28;20048;-56
2021/11/07 03:29:59;;;;;;;10.70;2.95;;;16.40;87.80;;;;;;4208900;28;20059;-56
2021/11/07 03:32:23;;;;;;;9.60;3.45;;;16.50;87.60;;;;;;4208650;28;20044;-57
2021/11/07 03:34:47;;;;;;;8.93;3.00;;;16.50;87.40;;;;;;4208827;28;20138;-55
2021/11/07 03:37:11;;;;;;;11.63;3.90;;;16.50;87.00;;;;;;4208950;28;20093;-54
2021/11/07 03:39:37;;;;;;;10.05;3.47;;;16.50;87.00;;;;;;4209042;28;20044;-57
2021/11/07 03:42:01;;;;;;;11.45;3.63;;;16.50;86.90;;;;;;4209395;28;20048;-57
2021/11/07 03:44:25;;;;;;;9.85;3.70;;;16.50;86.50;;;;;;4209271;28;20137;-58
2021/11/07 03:46:48;;;;;;;11.75;3.60;;;16.50;87.60;;;;;;4209352;28;20139;-57
2021/11/07 03:49:11;;;;;;;11.82;3.60;;;16.50;86.70;;;;;;4209243;28;20051;-56
2021/11/07 03:51:35;;;;;;;7.80;2.97;;;16.50;86.70;;;;;;4208919;28;20075;-55
2021/11/07 03:53:58;;;;;;;11.07;3.42;;;16.40;86.90;;;;;;4192576;28;20074;-57
2021/11/07 03:56:20;;;;;;;10.80;3.63;;;16.40;87.10;;;;;;4192599;28;20049;-57
2021/11/07 03:58:42;;;;;;;9.23;2.90;;;16.40;86.90;;;;;;4191614;28;20552;-57
2021/11/07 04:01:05;;;;;;;12.23;3.60;;;16.40;88.00;;;;;;4204368;28;20101;-57
2021/11/07 04:03:27;;;;;;;11.20;3.47;;;16.40;87.20;;;;;;4208918;28;20054;-56
2021/11/07 04:05:52;;;;;;;13.20;3.45;;;16.40;87.50;;;;;;4208965;28;20048;-55
2021/11/07 04:08:14;;;;;;;8.13;2.55;;;16.30;88.00;;;;;;4208731;28;20046;-55
2021/11/07 04:10:37;;;;;;;9.20;2.42;;;16.30;87.00;;;;;;4208368;28;20143;-56
2021/11/07 04:12:59;;;;;;;9.98;3.55;;;16.30;87.30;;;;;;4208624;28;20067;-56
2021/11/07 04:15:21;;;;;;;8.57;2.40;;;16.30;86.50;;;;;;4208245;28;20080;-55
2021/11/07 04:17:45;;;;;;;8.85;2.55;;;16.30;86.40;;;;;;4208701;28;20136;-57
2021/11/07 04:20:10;;;;;;;11.10;3.00;;;16.20;86.60;;;;;;4220253;28;20070;-56
2021/11/07 04:22:32;;;;;;;10.45;3.22;;;16.20;86.80;;;;;;4224952;28;20126;-56
2021/11/07 04:24:54;;;;;;;11.57;2.33;;;16.20;86.80;;;;;;4225078;28;20678;-57
2021/11/07 04:27:17;;;;;;;9.27;3.40;;;16.20;86.80;;;;;;4224941;28;20051;-54
2021/11/07 04:29:39;;;;;;;8.60;3.22;;;16.20;86.80;;;;;;4224862;28;20096;-57
2021/11/07 04:32:01;;;;;;;11.13;3.60;;;16.10;86.70;;;;;;4225162;28;20043;-57
2021/11/07 04:34:26;;;;;;;9.75;2.83;;;16.10;86.80;;;;;;4225093;28;20135;-58
2021/11/07 04:36:49;;;;;;;11.02;2.40;;;16.10;86.70;;;;;;4208028;28;20129;-58
2021/11/07 04:39:11;;;;;;;4.82;2.00;;;16.10;87.10;;;;;;4207549;28;20054;-55
2021/11/07 04:41:33;;;;;;;7.63;2.35;;;16.10;88.10;;;;;;4208582;28;20042;-59
2021/11/07 04:43:55;;;;;;;10.20;2.95;;;16.10;87.10;;;;;;4208022;28;20516;-58
2021/11/07 04:46:19;;;;;;;5.95;1.92;;;16.00;86.00;;;;;;4208157;28;20410;-58
2021/11/07 04:48:43;;;;;;;8.50;2.80;;;16.00;86.50;;;;;;4224826;28;20044;-58
2021/11/07 04:51:06;;;;;;;5.95;2.05;;;16.00;86.60;;;;;;4224596;28;20122;-58
2021/11/07 04:53:31;;;;;;;7.50;2.28;;;16.00;86.60;;;;;;4208008;28;20383;-58
2021/11/07 04:55:53;;;;;;;7.43;1.98;;;16.00;86.60;;;;;;4207335;28;20075;-59
2021/11/07 04:58:16;;;;;;;6.70;2.35;;;15.90;87.40;;;;;;4207725;28;20052;-58
2021/11/07 05:00:40;;;;;;;6.63;2.05;;;16.00;87.60;;;;;;4207840;28;20060;-57
2021/11/07 05:03:04;;;;;;;5.28;2.13;;;16.10;87.70;;;;;;4207746;28;20056;-57
2021/11/07 05:05:30;;;;;;;8.07;2.92;;;16.30;88.20;;;;;;4207798;28;20052;-58
2021/11/07 05:07:55;;;;;;;9.13;2.85;;;16.40;86.80;;;;;;4207636;28;20077;-59
2021/11/07 05:10:18;;;;;;;9.48;2.55;;;16.50;86.10;;;;;;4207556;28;20505;-58
2021/11/07 05:12:40;;;;;;;7.20;2.22;;;16.60;85.80;;;;;;4207629;28;20055;-58
2021/11/07 05:15:02;;;;;;;4.90;1.67;;;16.60;85.20;;;;;;4207801;28;20076;-59
2021/11/07 05:17:24;;;;;;;3.88;1.55;;;16.60;83.90;;;;;;4207273;28;20517;-58
2021/11/07 05:19:46;;;;;;;4.18;1.70;;;16.60;84.40;;;;;;4190860;28;20044;-57
2021/11/07 05:22:08;;;;;;;7.45;1.85;;;16.60;84.50;;;;;;4190922;28;20111;-58
2021/11/07 05:24:32;;;;;;;4.95;1.27;;;16.60;85.40;;;;;;4190791;28;20068;-58
2021/11/07 05:26:54;;;;;;;4.20;2.00;;;16.60;83.80;;;;;;4190814;28;20624;-58
2021/11/07 05:29:16;;;;;;;6.70;1.90;;;16.50;84.20;;;;;;4194060;28;20127;-58
2021/11/07 05:31:38;;;;;;;6.30;1.98;;;16.50;84.90;;;;;;4209336;28;20471;-58
2021/11/07 05:34:01;;;;;;;4.88;1.80;;;16.50;85.30;;;;;;4223207;28;20048;-59
2021/11/07 05:36:23;;;;;;;7.78;1.88;;;16.50;84.70;;;;;;4227782;28;20050;-58
2021/11/07 05:38:45;;;;;;;4.93;1.92;;;16.40;84.60;;;;;;4226825;28;20051;-59
2021/11/07 05:41:08;;;;;;;4.38;1.75;;;16.40;84.90;;;;;;4227493;28;20063;-59
2021/11/07 05:43:30;;;;;;;3.65;1.40;;;16.40;84.80;;;;;;4227196;28;20058;-59
2021/11/07 05:45:52;;;;;;;6.25;1.48;;;16.40;85.60;;;;;;4227619;28;20055;-58
2021/11/07 05:48:15;;;;;;;7.40;1.60;;;16.30;85.10;;;;;;4227386;28;20093;-58
2021/11/07 05:50:37;;;;;;;6.30;1.70;;;16.40;84.80;;;;;;4227590;28;20074;-59
2021/11/07 05:52:58;;;;;;;5.35;2.25;;;16.40;84.30;;;;;;4227306;28;20128;-59
2021/11/07 05:55:21;;;;;;;4.85;1.98;;;16.40;84.80;;;;;;4227493;28;20486;-58
2021/11/07 05:57:44;;;;;;;5.60;1.88;;;16.40;84.30;;;;;;4227464;28;20076;-58
2021/11/07 06:00:08;;;;;;;4.32;1.52;;;16.40;83.80;;;;;;4227354;28;20036;-58
2021/11/07 06:02:33;;;;;;;4.05;1.70;;;16.40;84.50;;;;;;4226131;28;20048;-58
2021/11/07 06:04:55;;;;;;;2.45;1.17;;;16.50;84.30;;;;;;4227096;28;20116;-59
2021/11/07 06:07:18;;;;;;;7.53;1.70;;;16.50;85.30;;;;;;4227231;28;20413;-57
2021/11/07 06:09:40;;;;;;;3.53;1.70;;;16.50;83.80;;;;;;4226628;28;20078;-58
2021/11/07 06:12:02;;;;;;;6.32;1.80;;;16.50;83.70;;;;;;4227076;28;20039;-59
2021/11/07 06:14:25;;;;;;;4.20;1.45;;;16.50;83.50;;;;;;4227216;28;20055;-58
2021/11/07 06:16:47;;;;;;;5.43;1.83;;;16.50;83.50;;;;;;4213123;28;20705;-58
2021/11/07 06:19:10;;;;;;;5.05;1.70;;;16.50;83.80;;;;;;4226742;28;21867;-58
2021/11/07 06:21:34;;;;;;;6.03;1.92;;;16.50;83.40;;;;;;4226576;28;20917;-58
2021/11/07 06:23:57;;;;;;;2.17;1.00;;;16.40;83.50;;;;;;4210119;28;20043;-58
2021/11/07 06:26:20;;;;;;;6.55;1.55;;;16.50;83.70;;;;;;4210339;28;20056;-58
2021/11/07 06:28:42;;;;;;;4.45;1.80;;;16.40;83.80;;;;;;4211226;28;20052;-58
2021/11/07 06:31:07;;;;;;;5.25;1.83;;;16.40;83.90;;;;;;4212224;28;20048;-57
2021/11/07 06:33:30;;;;;;;5.85;1.63;;;16.30;83.50;;;;;;4209560;28;20122;-59
2021/11/07 06:35:52;;;;;;;4.43;1.77;;;16.30;83.90;;;;;;4210032;28;20043;-59
2021/11/07 06:38:14;;;;;;;5.10;1.77;;;16.30;84.40;;;;;;4210761;28;20048;-58
2021/11/07 06:40:36;;;;;;;3.28;1.33;;;16.20;84.50;;;;;;4210207;28;20497;-57
2021/11/07 06:42:59;;;;;;;5.70;1.90;;;16.30;85.00;;;;;;4226407;28;20055;-57
2021/11/07 06:45:21;;;;;;;5.57;1.63;;;16.40;85.00;;;;;;4226778;28;20501;-58
2021/11/07 06:47:44;;;;;;;4.82;1.75;;;16.50;84.70;;;;;;4209765;28;20052;-58
2021/11/07 06:50:08;;;;;;;4.90;1.80;;;16.50;83.80;;;;;;4211081;28;20051;-58
2021/11/07 06:52:30;;;;;;;7.68;2.35;;;16.50;83.50;;;;;;4209914;28;20052;-56
2021/11/07 06:54:53;;;;;;;7.13;2.25;;;16.50;83.40;;;;;;4209969;28;20043;-57
2021/11/07 06:57:15;;;;;;;10.75;2.05;;;16.50;83.60;;;;;;4209237;28;20059;-56
2021/11/07 06:59:38;;;;;;;4.95;1.67;;;16.60;84.10;;;;;;4210444;28;20055;-56
2021/11/07 07:02:00;;;;;;;7.57;1.98;;;16.60;84.00;;;;;;4226596;28;20108;-58
2021/11/07 07:04:23;;;;;;;8.45;2.03;;;16.60;83.50;;;;;;4226363;28;20047;-56
2021/11/07 07:06:45;;;;;;;6.63;2.60;;;16.60;84.20;;;;;;4214490;28;20051;-57
2021/11/07 07:09:09;;;;;;;5.05;1.95;;;16.50;83.50;;;;;;4210512;28;20056;-57
2021/11/07 07:11:34;;;;;;;4.82;1.67;;;16.50;83.40;;;;;;4209738;28;20058;-58
2021/11/07 07:14:00;;;;;;;6.85;1.65;;;16.50;83.90;;;;;;4225833;28;20074;-58
2021/11/07 07:16:32;;;;;;;4.88;1.88;;;16.40;84.30;;;;;;4226166;28;20516;-59
2021/11/07 07:19:03;;;;;;;6.45;2.03;;;16.50;83.90;;;;;;4225416;28;20047;-59
2021/11/07 07:21:36;;;;;;;9.27;1.92;;;16.40;83.90;;;;;;4224251;28;20455;-59
2021/11/07 07:24:24;;;;;;;6.55;1.90;;;16.30;84.70;;;;;;4225748;28;20058;-59
2021/11/07 07:26:58;;;;;;;5.47;2.08;;;16.30;84.90;;;;;;4208927;28;20459;-59
2021/11/07 07:29:35;;;;;;;9.50;2.28;;;16.30;85.50;;;;;;4225073;28;20103;-59
2021/11/07 07:34:38;;;;;;;7.57;2.00;;;16.30;85.40;;;;;;4209690;28;20043;-58
2021/11/07 07:37:01;;;;;;;6.32;2.00;;;16.20;85.40;;;;;;4193786;28;20113;-58
2021/11/07 07:39:23;;;;;;;7.40;1.90;;;16.20;84.90;;;;;;4192076;28;20064;-58
2021/11/07 07:41:45;;;;;;;4.80;1.27;;;16.20;84.70;;;;;;4207214;28;20680;-58
2021/11/07 07:44:09;;;;;;;10.52;2.30;;;16.10;84.60;;;;;;4208527;28;20054;-58
2021/11/07 07:46:31;;;;;;;9.23;2.13;;;16.10;83.90;;;;;;4208918;28;20052;-58
2021/11/07 07:48:55;;;;;;;7.55;2.42;;;16.30;83.30;;;;;;4224428;28;20122;-58
2021/11/07 07:51:18;;;;;;;6.43;1.88;;;16.40;82.50;;;;;;4224643;28;20634;-58
2021/11/07 07:53:42;;;;;;;8.80;2.33;;;16.40;81.40;;;;;;4225482;28;20062;-57
2021/11/07 07:56:05;;;;;;;5.60;1.65;;;16.50;80.60;;;;;;4225095;28;20085;-59
2021/11/07 07:58:28;;;;;;;8.13;2.33;;;16.50;80.50;;;;;;4225487;28;20051;-58
2021/11/07 08:00:53;;;;;;;4.72;1.30;;;16.50;80.60;;;;;;4225490;28;20074;-58
2021/11/07 08:03:15;;;;;;;5.93;1.60;;;16.50;80.20;;;;;;4224892;28;20055;-58
2021/11/07 08:05:37;;;;;;;8.15;2.40;;;16.50;79.90;;;;;;4197347;28;20048;-59
2021/11/07 08:07:59;;;;;;;9.95;2.10;;;16.40;79.30;;;;;;4206258;28;20050;-59
2021/11/07 08:10:23;;;;;;;10.02;2.17;;;16.40;79.10;;;;;;4208257;28;20098;-59
2021/11/07 08:12:45;;;;;;;7.63;2.40;;;16.40;78.90;;;;;;4211619;28;20062;-59
2021/11/07 08:15:08;;;;;;;11.20;2.22;;;16.40;78.70;;;;;;4208334;28;20056;-58
2021/11/07 08:17:30;;;;;;;9.60;2.65;;;16.40;78.70;;;;;;4225182;28;20573;-59
2021/11/07 08:19:53;;;;;;;8.18;2.20;;;16.30;78.50;;;;;;4209314;28;20519;-59
2021/11/07 08:22:17;;;;;;;8.25;1.65;;;16.30;79.40;;;;;;4225139;28;20065;-59
2021/11/07 08:24:40;;;;;;;5.90;2.13;;;16.30;78.70;;;;;;4223415;28;20096;-58
2021/11/07 08:27:05;;;;;;;2.67;1.08;;;16.30;78.60;;;;;;4208215;28;20504;-59
2021/11/07 08:29:27;;;;;;;5.95;2.53;;;16.20;78.40;;;;;;4214015;28;20047;-58
2021/11/07 08:31:51;;;;;;;9.77;3.15;;;16.20;78.20;;;;;;4211163;28;20079;-59
2021/11/07 08:34:14;;;;;;;6.75;2.00;;;16.20;78.00;;;;;;4224681;28;20059;-58
2021/11/07 08:36:41;;;;;;;8.55;2.03;;;16.10;77.70;;;;;;4216217;28;20051;-59
2021/11/07 08:39:07;;;;;;;7.63;1.58;;;16.10;78.00;;;;;;4209222;28;20054;-57
2021/11/07 08:41:31;;;;;;;5.20;1.77;;;16.10;77.80;;;;;;4208092;28;20557;-58
2021/11/07 09:00:19;;;;;;;6.55;1.67;;;15.90;77.60;;;;;;4224082;28;20599;-58
2021/11/07 09:02:53;;;;;;;4.28;1.30;;;15.80;77.80;;;;;;4223982;28;20048;-59
2021/11/07 09:05:17;;;;;;;14.82;2.80;;;15.90;78.30;;;;;;4222995;28;20572;-57
2021/11/07 09:07:53;;;;;;;4.40;1.30;;;16.00;78.20;;;;;;4224338;28;20081;-57
2021/11/07 09:10:19;;;;;;;10.25;2.95;;;16.00;77.80;;;;;;4223802;28;20485;-56
2021/11/07 09:12:41;;;;;;;7.63;2.45;;;16.00;77.30;;;;;;4224397;28;20055;-57
2021/11/07 09:15:04;;;;;;;3.35;1.25;;;16.10;76.70;;;;;;4222549;28;20051;-61
2021/11/07 09:17:29;;;;;;;5.63;1.50;;;16.10;76.60;;;;;;4224307;28;20043;-57
2021/11/07 09:19:54;;;;;;;4.88;1.20;;;16.10;76.10;;;;;;4223781;28;20076;-57
2021/11/07 09:22:20;;;;;;;5.10;2.00;;;16.20;76.70;;;;;;4222379;28;20485;-57
2021/11/07 09:24:46;;;;;;;5.00;1.98;;;16.30;75.90;;;;;;4224431;28;20051;-58
2021/11/07 09:27:15;;;;;;;5.88;2.00;;;16.70;74.80;;;;;;4224002;28;20051;-58
2021/11/07 09:29:46;;;;;;;6.13;2.00;;;17.30;72.10;;;;;;4208911;28;20068;-58
2021/11/07 09:32:16;;;;;;;7.15;1.73;;;18.00;69.40;;;;;;4223932;28;20066;-57
2021/11/07 09:34:45;;;;;;;7.63;2.17;;;18.70;66.60;;;;;;4207085;28;20142;-58
2021/11/07 09:37:12;;;;;;;2.70;1.23;;;19.50;63.80;;;;;;4206634;28;20381;-59
2021/11/07 09:39:38;;;;;;;5.38;1.80;;;20.20;61.10;;;;;;4213873;28;20138;-58
2021/11/07 09:44:49;;;;;;;7.20;2.00;;;21.40;57.00;;;;;;4195607;28;20516;-56
2021/11/07 09:47:26;;;;;;;5.82;2.40;;;21.80;55.40;;;;;;4193081;28;20086;-58
2021/11/07 09:49:51;;;;;;;7.15;2.42;;;22.00;54.70;;;;;;4208810;28;20131;-59
2021/11/07 09:52:17;;;;;;;5.38;2.15;;;22.00;54.40;;;;;;4207914;28;20055;-60
2021/11/07 09:54:43;;;;;;;5.72;1.70;;;22.00;54.10;;;;;;4207380;28;20052;-60
2021/11/07 09:57:06;;;;;;;2.35;1.35;;;21.80;54.60;;;;;;4207259;28;20048;-60
2021/11/07 09:59:29;;;;;;;4.57;0.90;;;21.60;55.20;;;;;;4221345;28;20055;-60
2021/11/07 10:01:58;;;;;;;4.03;1.58;;;21.30;55.80;;;;;;4224026;28;20070;-60
2021/11/07 10:04:22;;;;;;;5.07;1.95;;;21.00;56.10;;;;;;4224339;28;20105;-59
2021/11/07 10:06:48;;;;;;;4.32;1.77;;;20.70;57.20;;;;;;4224178;28;20054;-60
2021/11/07 10:09:14;;;;;;;4.75;2.08;;;20.50;57.60;;;;;;4208319;28;20422;-60
2021/11/07 10:11:39;;;;;;;5.95;2.00;;;20.50;58.10;;;;;;4224114;28;20071;-59
2021/11/07 10:14:10;;;;;;;4.13;1.88;;;20.50;58.00;;;;;;4225903;28;20043;-58
2021/11/07 10:16:44;;;;;;;2.30;1.17;;;20.50;57.80;;;;;;4209431;28;20068;-59
2021/11/07 10:19:19;;;;;;;6.43;1.60;;;20.60;58.10;;;;;;4200768;28;20070;-60
2021/11/07 10:21:49;;;;;;;8.90;2.50;;;20.60;58.20;;;;;;4226779;28;20051;-59
2021/11/07 10:24:15;;;;;;;4.50;1.95;;;20.60;58.10;;;;;;4209117;28;20135;-59
2021/11/07 10:26:40;;;;;;;4.45;2.10;;;20.60;58.60;;;;;;4226945;28;20811;-58
2021/11/07 10:29:04;;;;;;;5.13;1.90;;;20.50;59.00;;;;;;4226486;28;20091;-59
2021/11/07 10:31:33;;;;;;;8.63;2.08;;;20.50;58.70;;;;;;4226844;28;20054;-59
2021/11/07 10:34:22;;;;;;;5.57;2.42;;;20.50;59.40;;;;;;4226320;28;20812;-59
2021/11/07 10:37:11;;;;;;;6.22;2.22;;;20.50;58.70;;;;;;4212421;28;20048;-54
2021/11/07 10:39:41;;;;;;;7.82;2.67;;;20.40;58.80;;;;;;4226497;28;20075;-59
2021/11/07 10:47:31;;;;;;;6.25;2.20;;;20.20;60.60;;;;;;4223005;28;20135;-58
2021/11/07 10:52:38;;;;;;;4.35;1.50;;;20.20;59.90;;;;;;4226385;28;20059;-58
2021/11/07 10:55:02;;;;;;;3.45;1.70;;;20.30;60.00;;;;;;4226475;28;20043;-56
2021/11/07 10:57:26;;;;;;;6.80;2.65;;;20.30;59.60;;;;;;4220826;28;20506;-57
2021/11/07 11:00:24;;;;;;;10.63;2.20;;;20.40;59.00;;;;;;4193103;28;20068;-58
2021/11/07 11:02:48;;;;;;;7.03;2.40;;;20.40;59.30;;;;;;4192976;28;20059;-58
2021/11/07 11:05:12;;;;;;;6.28;1.70;;;20.40;58.90;;;;;;4192989;28;20135;-59
2021/11/07 11:07:48;;;;;;;5.85;1.95;;;20.50;58.80;;;;;;4204257;28;20127;-58
2021/11/07 11:10:17;;;;;;;3.20;1.67;;;20.50;59.10;;;;;;4226004;28;20044;-57
2021/11/07 11:13:02;;;;;;;7.15;1.95;;;20.50;58.10;;;;;;4226097;28;20556;-58
2021/11/07 11:15:33;;;;;;;5.57;1.85;;;20.40;58.40;;;;;;4224681;28;20100;-58
2021/11/07 11:18:09;;;;;;;9.02;1.90;;;20.30;58.60;;;;;;4207980;28;20135;-59
2021/11/07 11:20:42;;;;;;;6.60;1.90;;;20.20;58.70;;;;;;4208580;28;20165;-58
2021/11/07 11:23:11;;;;;;;1.70;0.80;;;20.10;59.20;;;;;;4209362;28;20060;-59
2021/11/07 11:25:40;;;;;;;5.68;1.92;;;20.00;59.10;;;;;;4209502;28;20051;-59
2021/11/07 11:28:15;;;;;;;2.75;1.55;;;20.00;58.50;;;;;;4208361;28;20075;-58
2021/11/07 11:30:51;;;;;;;7.82;2.50;;;20.00;58.60;;;;;;4225682;28;20122;-58
2021/11/07 11:33:18;;;;;;;5.63;1.90;;;20.00;58.40;;;;;;4225197;28;20043;-58
2021/11/07 11:35:46;;;;;;;4.40;1.58;;;20.00;58.70;;;;;;4225633;28;20050;-59
2021/11/07 11:38:15;;;;;;;4.43;1.65;;;20.10;58.70;;;;;;4224850;28;20052;-57
2021/11/07 11:40:48;;;;;;;5.95;1.70;;;20.20;58.70;;;;;;4225332;28;20408;-56
2021/11/07 11:43:14;;;;;;;5.50;1.73;;;20.30;58.60;;;;;;4208843;28;20546;-58
2021/11/07 11:45:40;;;;;;;4.80;2.25;;;20.30;58.60;;;;;;4208960;28;20417;-59
2021/11/07 11:48:26;;;;;;;6.57;2.58;;;20.30;58.70;;;;;;4225702;28;20073;-56
2021/11/07 11:51:15;;;;;;;4.80;1.38;;;20.30;58.70;;;;;;4225199;28;20051;-58
2021/11/07 11:54:13;;;;;;;7.30;2.17;;;20.20;59.30;;;;;;4225199;28;20055;-58
2021/11/07 11:56:38;;;;;;;6.15;2.50;;;20.20;59.60;;;;;;4211779;28;20071;-58
2021/11/07 11:59:03;;;;;;;4.15;1.63;;;20.20;58.70;;;;;;4225508;28;20456;-58
2021/11/07 12:01:29;;;;;;;5.57;2.03;;;20.20;58.80;;;;;;4225355;28;20062;-58
2021/11/07 12:04:00;;;;;;;4.72;1.58;;;20.10;58.90;;;;;;4213571;28;20550;-58
2021/11/07 12:06:30;;;;;;;4.93;1.88;;;20.00;59.40;;;;;;4208227;28;20206;-58
2021/11/07 12:09:34;;;;;;;4.75;1.83;;;20.10;58.80;;;;;;4208064;28;20043;-58
2021/11/07 12:12:03;;;;;;;4.68;1.92;;;20.00;58.90;;;;;;4208201;28;20412;-58
2021/11/07 12:14:34;;;;;;;6.40;2.13;;;20.00;59.00;;;;;;4212661;28;20058;-58
2021/11/07 12:16:59;;;;;;;6.15;2.50;;;19.90;59.50;;;;;;4209581;28;20059;-58
2021/11/07 12:19:31;;;;;;;5.35;1.98;;;19.90;59.90;;;;;;4208304;28;20068;-57
2021/11/07 12:22:08;;;;;;;4.78;1.92;;;19.90;59.90;;;;;;4208251;28;20447;-57
2021/11/07 12:24:36;;;;;;;3.75;2.05;;;19.90;60.00;;;;;;4208363;28;20476;-57
2021/11/07 12:27:27;;;;;;;5.68;2.15;;;20.00;59.80;;;;;;4208626;28;20048;-57
2021/11/07 12:29:52;;;;;;;6.38;2.17;;;19.90;59.60;;;;;;4208318;28;20487;-58
2021/11/07 12:32:16;;;;;;;6.25;1.83;;;19.90;60.00;;;;;;4208684;28;20135;-58
2021/11/07 12:35:04;;;;;;;5.85;1.60;;;19.90;59.60;;;;;;4208722;28;20509;-58
2021/11/07 12:40:51;;;;;;;5.47;2.08;;;19.90;58.60;;;;;;4216524;28;20059;-59
2021/11/07 12:43:21;;;;;;;5.28;1.77;;;19.90;59.90;;;;;;4223745;28;20055;-57
2021/11/07 12:45:47;;;;;;;4.00;1.83;;;19.80;59.80;;;;;;4223533;28;20070;-57
2021/11/07 12:48:11;;;;;;;4.82;1.50;;;19.80;59.90;;;;;;4209335;28;20406;-58
2021/11/07 12:50:52;;;;;;;6.38;1.75;;;19.90;60.60;;;;;;4224713;27;20486;-58
2021/11/07 12:53:15;;;;;;;2.85;1.60;;;19.90;60.50;;;;;;4207436;28;20050;-58
2021/11/07 12:55:39;;;;;;;5.63;1.73;;;19.80;59.70;;;;;;4223974;28;20049;-58
2021/11/07 12:58:03;;;;;;;7.20;2.08;;;19.80;60.10;;;;;;4224613;28;20104;-59
2021/11/07 13:00:25;;;;;;;8.23;2.67;;;19.70;60.10;;;;;;4224566;28;20043;-59
2021/11/07 13:02:47;;;;;;;4.60;1.98;;;19.70;60.40;;;;;;4224651;28;20043;-58
2021/11/07 13:05:18;;;;;;;5.50;1.45;;;19.70;60.10;;;;;;4224559;28;20051;-59
2021/11/07 13:07:44;;;;;;;3.65;1.75;;;19.80;60.00;;;;;;4224785;28;20089;-59
2021/11/07 13:10:14;;;;;;;4.05;1.35;;;19.80;59.00;;;;;;4224259;28;20071;-59
2021/11/07 13:12:40;;;;;;;5.68;2.22;;;19.80;59.70;;;;;;4223009;28;20097;-59
2021/11/07 13:18:15;;;;;;;6.35;1.80;;;19.80;59.50;;;;;;4190724;28;20080;-59